createdAt,value
2022-09-04T00:00:10.611Z,100823.41
2022-09-04T00:03:10.493Z,100825.25
2022-09-04T00:06:02.965Z,100829.88
2022-09-04T00:09:06.472Z,100830.94
2022-09-04T00:12:02.013Z,100833.81
2022-09-04T00:15:13.620Z,100838.31
2022-09-04T00:18:09.843Z,100846.28
2022-09-04T00:20:59.681Z,100837.22
2022-09-04T00:24:02.390Z,100850.53
2022-09-04T00:27:17.025Z,100850.44
2022-09-04T00:30:08.553Z,100851.88
2022-09-04T00:33:18.077Z,100849.22
2022-09-04T00:36:06.110Z,100854.47
2022-09-04T00:39:13.737Z,100848.38
2022-09-04T00:42:37.261Z,100849.16
2022-09-04T00:45:27.676Z,100852.09
2022-09-04T00:48:37.013Z,100851.75
2022-09-04T00:51:24.265Z,100854.06
2022-09-04T00:54:21.834Z,100849.22
2022-09-04T00:57:27.766Z,100855.78
2022-09-04T01:00:18.688Z,100861.69
2022-09-04T01:03:34.886Z,100854.38
2022-09-04T01:06:46.774Z,100854.59
2022-09-04T01:09:55.732Z,100858.19
2022-09-04T01:13:04.832Z,100855.22
2022-09-04T01:16:32.856Z,100866.44
2022-09-04T01:19:47.481Z,100865.34
2022-09-04T01:22:58.718Z,100872.88
2022-09-04T01:25:56.552Z,100865.44
2022-09-04T01:29:07.838Z,100869.59
2022-09-04T01:32:01.678Z,100869.59
2022-09-04T01:35:31.321Z,100863.09
2022-09-04T01:38:51.240Z,100876.53
2022-09-04T01:41:45.530Z,100883.88
2022-09-04T01:44:34.073Z,100876.59
2022-09-04T01:47:31.706Z,100880.38
2022-09-04T01:50:26.531Z,100884.56
2022-09-04T01:53:43.695Z,100891.97
2022-09-04T01:57:19.030Z,100900.38
2022-09-04T02:00:16.360Z,100898.28
2022-09-04T02:03:14.461Z,100895.38
2022-09-04T02:06:10.772Z,100901.25
2022-09-04T02:09:34.224Z,100894.94
2022-09-04T02:12:50.911Z,100897.03
2022-09-04T02:15:58.606Z,100906.72
2022-09-04T02:19:15.464Z,100908.25
2022-09-04T02:22:28.613Z,100903.41
2022-09-04T02:25:25.959Z,100911.97
2022-09-04T02:28:48.568Z,100914.94
2022-09-04T02:31:38.579Z,100914.72
2022-09-04T02:34:51.778Z,100918.94
2022-09-04T02:37:46.873Z,100927.59
2022-09-04T02:40:51.681Z,100917.50
2022-09-04T02:44:07.745Z,100913.78
2022-09-04T02:47:23.840Z,100924.25
2022-09-04T02:50:26.417Z,100921.53
2022-09-04T02:53:41.817Z,100922.41
2022-09-04T02:57:07.770Z,100926.41
2022-09-04T03:00:28.717Z,100929.38
2022-09-04T03:03:21.246Z,100929.38
2022-09-04T03:06:14.003Z,100931.75
2022-09-04T03:09:12.126Z,100933.03
2022-09-04T03:12:14.786Z,100932.38
2022-09-04T03:15:11.637Z,100926.91
2022-09-04T03:18:39.518Z,100929.63
2022-09-04T03:21:34.386Z,100941.00
2022-09-04T03:24:57.694Z,100931.75
2022-09-04T03:27:44.952Z,100936.56
2022-09-04T03:30:36.040Z,100933.03
2022-09-04T03:33:51.522Z,100937.69
2022-09-04T03:37:04.742Z,100927.59
2022-09-04T03:40:09.867Z,100932.38
2022-09-04T03:43:30.945Z,100939.34
2022-09-04T03:46:36.364Z,100932.44
2022-09-04T03:49:42.701Z,100940.22
2022-09-04T03:52:54.216Z,100947.97
2022-09-04T03:56:00.865Z,100949.41
2022-09-04T03:59:03.033Z,100951.97
2022-09-04T04:01:55.858Z,100945.72
2022-09-04T04:05:17.104Z,100953.47
2022-09-04T04:08:11.418Z,100962.69
2022-09-04T04:11:18.974Z,100961.66
2022-09-04T04:14:18.201Z,100959.38
2022-09-04T04:17:43.001Z,100965.00
2022-09-04T04:20:52.328Z,100965.44
2022-09-04T04:23:59.087Z,100972.81
2022-09-04T04:27:18.085Z,100969.00
2022-09-04T04:30:16.975Z,100976.38
2022-09-04T04:33:11.681Z,100974.94
2022-09-04T04:36:13.081Z,100980.63
2022-09-04T04:39:10.033Z,100982.75
2022-09-04T04:42:15.232Z,100982.75
2022-09-04T04:45:46.777Z,100989.22
2022-09-04T04:49:28.466Z,100985.91
2022-09-04T04:52:18.470Z,100993.28
2022-09-04T04:55:31.560Z,101000.19
2022-09-04T04:58:25.041Z,101000.41
2022-09-04T05:01:28.422Z,101005.22
2022-09-04T05:04:53.176Z,101011.28
2022-09-04T05:07:43.173Z,101021.31
2022-09-04T05:10:46.941Z,101017.56
2022-09-04T05:13:55.744Z,101026.41
2022-09-04T05:17:20.541Z,101027.00
2022-09-04T05:20:17.010Z,101033.69
2022-09-04T05:23:29.421Z,101037.69
2022-09-04T05:26:25.809Z,101038.94
2022-09-04T05:29:28.158Z,101050.47
2022-09-04T05:32:29.633Z,101050.66
2022-09-04T05:35:31.828Z,101064.31
2022-09-04T05:38:52.359Z,101053.41
2022-09-04T05:42:08.900Z,101061.38
2022-09-04T05:45:24.646Z,101062.59
2022-09-04T05:48:56.596Z,101067.84
2022-09-04T05:52:07.303Z,101073.31
2022-09-04T05:55:16.225Z,101080.00
2022-09-04T05:58:17.532Z,101085.00
2022-09-04T06:02:10.775Z,101084.13
2022-09-04T06:05:19.032Z,101092.53
2022-09-04T06:08:16.753Z,101094.41
2022-09-04T06:11:51.446Z,101095.22
2022-09-04T06:15:00.187Z,101095.63
2022-09-04T06:18:02.273Z,101095.41
2022-09-04T06:21:01.496Z,101100.59
2022-09-04T06:24:24.473Z,101106.69
2022-09-04T06:27:20.825Z,101104.97
2022-09-04T06:30:16.344Z,101109.38
2022-09-04T06:33:42.061Z,101111.69
2022-09-04T06:36:46.281Z,101111.03
2022-09-04T06:39:59.827Z,101117.91
2022-09-04T06:43:19.500Z,101118.72
2022-09-04T06:46:27.141Z,101123.31
2022-09-04T06:49:24.106Z,101126.69
2022-09-04T06:52:21.129Z,101129.22
2022-09-04T06:55:13.575Z,101135.28
2022-09-04T06:58:09.971Z,101135.47
2022-09-04T07:01:08.673Z,101142.78
2022-09-04T07:04:53.453Z,101146.75
2022-09-04T07:08:02.960Z,101142.88
2022-09-04T07:11:18.795Z,101150.44
2022-09-04T07:14:33.881Z,101146.00
2022-09-04T07:17:40.227Z,101151.88
2022-09-04T07:20:56.864Z,101146.59
2022-09-04T07:24:07.422Z,101154.13
2022-09-04T07:27:28.048Z,101163.78
2022-09-04T07:30:17.377Z,101150.72
2022-09-04T07:33:12.486Z,101154.44
2022-09-04T07:36:13.318Z,101161.19
2022-09-04T07:39:25.147Z,101166.13
2022-09-04T07:42:20.185Z,101176.19
2022-09-04T07:45:22.426Z,101174.06
2022-09-04T07:48:32.302Z,101170.88
2022-09-04T07:51:26.338Z,101177.81
2022-09-04T07:54:35.548Z,101176.53
2022-09-04T07:57:44.505Z,101176.44
2022-09-04T08:01:01.849Z,101179.28
2022-09-04T08:04:04.738Z,101184.31
2022-09-04T08:06:59.209Z,101181.53
2022-09-04T08:10:22.697Z,101183.34
2022-09-04T08:13:26.629Z,101198.09
2022-09-04T08:16:41.554Z,101195.47
2022-09-04T08:19:48.708Z,101203.25
2022-09-04T08:23:04.232Z,101211.38
2022-09-04T08:25:54.116Z,101207.81
2022-09-04T08:29:08.869Z,101208.59
2022-09-04T08:32:38.069Z,101210.19
2022-09-04T08:35:56.783Z,101210.72
2022-09-04T08:39:21.681Z,101196.69
2022-09-04T08:42:39.562Z,101208.41
2022-09-04T08:45:48.283Z,101208.47
2022-09-04T08:48:48.770Z,101214.47
2022-09-04T08:52:18.589Z,101213.78
2022-09-04T08:55:33.132Z,101223.03
2022-09-04T08:58:38.486Z,101228.28
2022-09-04T09:01:31.732Z,101229.50
2022-09-04T09:05:00.053Z,101227.50
2022-09-04T09:07:58.352Z,101222.44
2022-09-04T09:10:54.688Z,101219.56
2022-09-04T09:13:47.696Z,101213.03
2022-09-04T09:16:48.281Z,101217.59
2022-09-04T09:19:59.907Z,101207.81
2022-09-04T09:23:19.272Z,101209.75
2022-09-04T09:26:12.320Z,101217.84
2022-09-04T09:29:24.617Z,101208.91
2022-09-04T09:32:59.255Z,101212.91
2022-09-04T09:36:16.077Z,101215.50
2022-09-04T09:39:05.933Z,101212.78
2022-09-04T09:42:25.061Z,101205.13
2022-09-04T09:45:35.697Z,101209.44
2022-09-04T09:48:57.488Z,101213.66
2022-09-04T09:52:09.621Z,101209.47
2022-09-04T09:55:45.685Z,101204.59
2022-09-04T09:58:58.515Z,101204.81
2022-09-04T10:02:40.144Z,101192.50
2022-09-04T10:05:55.479Z,101195.25
2022-09-04T10:09:24.299Z,101197.75
2022-09-04T10:12:50.201Z,101197.16
2022-09-04T10:16:14.812Z,101197.25
2022-09-04T10:19:31.084Z,101195.47
2022-09-04T10:22:33.429Z,101189.47
2022-09-04T10:25:49.942Z,101201.09
2022-09-04T10:29:04.078Z,101206.44
2022-09-04T10:31:54.323Z,101204.13
2022-09-04T10:34:56.768Z,101205.56
2022-09-04T10:38:01.425Z,101211.19
2022-09-04T10:41:08.889Z,101197.50
2022-09-04T10:44:26.409Z,101195.84
2022-09-04T10:47:41.266Z,101194.22
2022-09-04T10:50:58.044Z,101194.19
2022-09-04T10:54:07.810Z,101197.59
2022-09-04T10:57:18.370Z,101191.38
2022-09-04T11:00:20.286Z,101189.78
2022-09-04T11:03:44.294Z,101191.47
2022-09-04T11:06:49.258Z,101196.50
2022-09-04T11:10:04.291Z,101193.66
2022-09-04T11:13:30.001Z,101189.53
2022-09-04T11:16:17.218Z,101187.84
2022-09-04T11:19:10.358Z,101185.88
2022-09-04T11:22:20.306Z,101185.19
2022-09-04T11:25:19.426Z,101184.25
2022-09-04T11:28:07.026Z,101185.59
2022-09-04T11:31:22.084Z,101192.22
2022-09-04T11:34:41.904Z,101188.69
2022-09-04T11:38:03.349Z,101162.38
2022-09-04T11:41:22.303Z,101184.69
2022-09-04T11:44:25.189Z,101187.25
2022-09-04T11:47:30.357Z,101190.78
2022-09-04T11:50:36.680Z,101182.66
2022-09-04T11:53:40.288Z,101188.88
2022-09-04T11:56:50.669Z,101190.34
2022-09-04T11:59:59.696Z,101180.88
2022-09-04T12:03:10.623Z,101184.72
2022-09-04T12:06:09.989Z,101194.50
2022-09-04T12:09:00.201Z,101191.91
2022-09-04T12:11:50.863Z,101175.22
2022-09-04T12:14:56.109Z,101186.44
2022-09-04T12:17:58.149Z,101165.72
2022-09-04T12:21:01.851Z,101186.38
2022-09-04T12:24:05.990Z,101191.94
2022-09-04T12:26:56.002Z,101194.19
2022-09-04T12:29:52.450Z,101195.59
2022-09-04T12:32:42.741Z,101195.34
2022-09-04T12:36:05.904Z,101194.81
2022-09-04T12:39:11.619Z,101192.63
2022-09-04T12:42:24.168Z,101184.63
2022-09-04T12:45:17.292Z,101175.13
2022-09-04T12:48:27.673Z,101187.91
2022-09-04T12:51:21.168Z,101189.56
2022-09-04T12:54:34.350Z,101192.94
2022-09-04T12:57:49.789Z,101203.44
2022-09-04T13:01:08.408Z,101201.50
2022-09-04T13:04:05.722Z,101202.44
2022-09-04T13:07:15.827Z,101193.09
2022-09-04T13:10:24.799Z,101197.84
2022-09-04T13:13:30.481Z,101195.69
2022-09-04T13:16:38.866Z,101193.19
2022-09-04T13:19:45.936Z,101207.06
2022-09-04T13:22:55.031Z,101207.09
2022-09-04T13:25:58.537Z,101200.19
2022-09-04T13:28:54.763Z,101199.66
2022-09-04T13:31:45.027Z,101200.47
2022-09-04T13:34:58.545Z,101199.94
2022-09-04T13:37:54.691Z,101197.97
2022-09-04T13:41:12.391Z,101195.47
2022-09-04T13:44:00.586Z,101204.09
2022-09-04T13:46:54.677Z,101201.59
2022-09-04T13:49:48.151Z,101204.63
2022-09-04T13:52:49.973Z,101207.97
2022-09-04T13:55:49.981Z,101208.50
2022-09-04T13:58:44.272Z,101212.94
2022-09-04T14:01:46.018Z,101208.75
2022-09-04T14:04:48.741Z,101213.16
2022-09-04T14:07:42.835Z,101205.66
2022-09-04T14:11:05.896Z,101206.53
2022-09-04T14:14:11.361Z,101212.13
2022-09-04T14:16:59.978Z,101211.56
2022-09-04T14:20:22.456Z,101199.34
2022-09-04T14:23:38.096Z,101197.69
2022-09-04T14:26:35.690Z,101202.16
2022-09-04T14:29:38.900Z,101201.88
2022-09-04T14:32:49.362Z,101206.00
2022-09-04T14:35:50.742Z,101201.00
2022-09-04T14:39:04.716Z,101204.34
2022-09-04T14:42:03.719Z,101196.03
2022-09-04T14:45:18.109Z,101189.09
2022-09-04T14:48:12.115Z,101194.94
2022-09-04T14:51:13.368Z,101189.94
2022-09-04T14:54:02.010Z,101193.25
2022-09-04T14:56:54.166Z,101192.13
2022-09-04T14:59:51.530Z,101192.66
2022-09-04T15:03:08.656Z,101191.88
2022-09-04T15:05:59.271Z,101198.81
2022-09-04T15:08:50.545Z,101199.63
2022-09-04T15:11:37.900Z,101199.66
2022-09-04T15:14:32.816Z,101196.59
2022-09-04T15:17:29.837Z,101190.16
2022-09-04T15:20:27.751Z,101189.59
2022-09-04T15:23:27.461Z,101190.13
2022-09-04T15:26:24.802Z,101185.41
2022-09-04T15:29:20.834Z,101187.03
2022-09-04T15:32:13.934Z,101186.47
2022-09-04T15:35:15.625Z,101194.22
2022-09-04T15:38:21.203Z,101180.91
2022-09-04T15:41:19.302Z,101184.75
2022-09-04T15:44:21.592Z,101191.41
2022-09-04T15:47:15.853Z,101187.22
2022-09-04T15:50:22.312Z,101193.59
2022-09-04T15:53:25.064Z,101188.56
2022-09-04T15:56:17.144Z,101184.41
2022-09-04T15:59:15.933Z,101183.03
2022-09-04T16:02:25.027Z,101188.03
2022-09-04T16:05:25.477Z,101185.25
2022-09-04T16:08:26.123Z,101189.38
2022-09-04T16:11:29.237Z,101186.88
2022-09-04T16:14:22.922Z,101186.28
2022-09-04T16:17:20.097Z,101189.59
2022-09-04T16:20:36.091Z,101189.34
2022-09-04T16:23:32.056Z,101192.63
2022-09-04T16:26:27.050Z,101191.81
2022-09-04T16:29:29.715Z,101191.81
2022-09-04T16:32:22.186Z,101191.28
2022-09-04T16:35:19.349Z,101189.91
2022-09-04T16:38:14.746Z,101181.88
2022-09-04T16:41:25.490Z,101188.78
2022-09-04T16:44:25.848Z,101182.09
2022-09-04T16:47:26.666Z,101188.47
2022-09-04T16:50:37.620Z,101189.06
2022-09-04T16:53:41.706Z,101187.38
2022-09-04T16:56:40.566Z,101182.94
2022-09-04T16:59:35.599Z,101185.16
2022-09-04T17:02:43.907Z,101176.25
2022-09-04T17:05:50.773Z,101175.72
2022-09-04T17:09:21.561Z,101176.25
2022-09-04T17:12:32.690Z,101175.66
2022-09-04T17:15:34.516Z,101170.66
2022-09-04T17:18:24.327Z,101173.38
2022-09-04T17:27:26.012Z,101177.69
2022-09-04T17:29:07.543Z,101173.72
2022-09-04T17:29:08.422Z,101171.69
2022-09-04T17:31:38.506Z,101175.03
2022-09-04T17:40:36.664Z,101171.94
2022-09-04T17:40:54.444Z,101172.19
2022-09-04T17:41:31.423Z,101175.16
2022-09-04T17:44:54.230Z,101175.94
2022-09-04T17:47:42.889Z,101178.16
2022-09-04T17:50:30.450Z,101178.09
2022-09-04T17:53:33.469Z,101165.06
2022-09-04T17:56:31.576Z,101175.47
2022-09-04T17:59:28.912Z,101178.47
2022-09-04T18:02:25.825Z,101183.16
2022-09-04T18:05:25.461Z,101188.91
2022-09-04T18:08:32.631Z,101186.06
2022-09-04T18:11:27.108Z,101185.44
2022-09-04T18:14:23.012Z,101187.31
2022-09-04T18:17:23.400Z,101193.06
2022-09-04T18:20:38.236Z,101194.91
2022-09-04T18:23:51.349Z,101204.75
2022-09-04T18:26:45.469Z,101212.06
2022-09-04T18:32:43.196Z,101215.28
2022-09-04T18:37:20.411Z,101221.44
2022-09-04T18:37:24.928Z,101220.97
2022-09-04T18:40:00.189Z,101226.22
2022-09-04T18:50:23.364Z,101246.03
2022-09-04T18:50:32.332Z,101242.31
2022-09-04T18:50:41.122Z,101237.09
2022-09-04T18:52:42.438Z,101242.47
2022-09-04T18:55:37.012Z,101241.31
2022-09-04T18:58:37.975Z,101243.97
2022-09-04T19:01:38.469Z,101248.56
2022-09-04T19:04:41.430Z,101243.22
2022-09-04T19:07:49.128Z,101245.31
2022-09-04T19:10:49.809Z,101252.91
2022-09-04T19:13:48.365Z,101253.41
2022-09-04T19:16:48.994Z,101259.41
2022-09-04T19:19:54.080Z,101260.75
2022-09-04T19:22:47.920Z,101263.06
2022-09-04T19:25:44.186Z,101254.13
2022-09-04T19:28:55.919Z,101252.16
2022-09-04T19:31:59.046Z,101254.28
2022-09-04T19:35:11.962Z,101263.16
2022-09-04T19:42:47.796Z,101258.47
2022-09-04T19:45:59.686Z,101258.72
2022-09-04T19:46:09.323Z,101255.16
2022-09-04T19:48:20.710Z,101263.06
2022-09-04T19:53:24.518Z,101253.88
2022-09-04T19:54:33.843Z,101257.97
2022-09-04T19:57:34.504Z,101260.59
2022-09-04T20:00:43.100Z,101257.53
2022-09-04T20:03:39.569Z,101237.56
2022-09-04T20:06:36.328Z,101264.72
2022-09-04T20:09:37.258Z,101285.81
2022-09-04T20:12:35.438Z,101266.19
2022-09-04T20:15:31.603Z,101256.94
2022-09-04T20:18:39.468Z,101269.13
2022-09-04T20:21:50.235Z,101284.78
2022-09-04T20:25:01.289Z,101276.78
2022-09-04T20:28:14.518Z,101286.63
2022-09-04T20:31:36.138Z,101291.41
2022-09-04T20:34:27.201Z,101280.91
2022-09-04T20:37:53.726Z,101289.88
2022-09-04T20:40:44.277Z,101295.28
2022-09-04T20:44:00.529Z,101291.44
2022-09-04T20:52:43.302Z,101296.56
2022-09-04T20:53:00.035Z,101285.81
2022-09-04T20:54:07.175Z,101289.88
2022-09-04T21:00:23.606Z,101290.59
2022-09-04T21:03:10.002Z,101288.34
2022-09-04T21:04:02.978Z,101292.66
2022-09-04T21:07:24.989Z,101291.44
2022-09-04T21:10:37.092Z,101296.31
2022-09-04T21:14:03.551Z,101296.81
2022-09-04T21:17:33.421Z,101298.59
2022-09-04T21:20:19.264Z,101301.34
2022-09-04T21:23:07.453Z,101302.91
2022-09-04T21:25:57.731Z,101301.81
2022-09-04T21:29:10.844Z,101293.56
2022-09-04T21:32:13.334Z,101298.50
2022-09-04T21:35:13.935Z,101304.47
2022-09-04T21:38:39.389Z,101302.91
2022-09-04T21:42:17.156Z,101308.53
2022-09-04T21:45:16.630Z,101300.75
2022-09-04T21:48:43.564Z,101307.81
2022-09-04T21:51:36.502Z,101307.81
2022-09-04T21:59:49.308Z,101308.28
2022-09-04T22:02:36.349Z,101303.25
2022-09-04T22:02:39.336Z,101305.38
2022-09-04T22:05:09.601Z,101310.28
2022-09-04T22:13:26.542Z,101301.31
2022-09-04T22:13:38.855Z,101302.25
2022-09-04T22:14:46.673Z,101307.34
2022-09-04T22:18:09.867Z,101305.25
2022-09-04T22:21:40.208Z,101304.81
2022-09-04T22:25:06.174Z,101308.28
2022-09-04T22:28:17.022Z,101310.44
2022-09-04T22:31:24.572Z,101318.00
2022-09-04T22:34:46.574Z,101324.59
2022-09-04T22:37:48.958Z,101320.16
2022-09-04T22:40:56.490Z,101323.84
2022-09-04T22:44:12.957Z,101324.31
2022-09-04T22:47:25.616Z,101326.53
2022-09-04T22:50:18.788Z,101330.34
2022-09-04T22:53:27.018Z,101332.44
2022-09-04T22:56:42.900Z,101330.59
2022-09-04T22:59:42.253Z,101331.44
2022-09-04T23:08:29.122Z,101327.56
2022-09-04T23:13:46.234Z,101337.59
2022-09-04T23:13:46.603Z,101336.16
2022-09-04T23:16:41.493Z,101334.72
2022-09-04T23:26:35.091Z,101339.34
2022-09-04T23:26:43.217Z,101336.69
2022-09-04T23:27:00.235Z,101340.19
2022-09-04T23:30:06.025Z,101344.00
2022-09-04T23:33:10.705Z,101339.91
2022-09-04T23:36:22.657Z,101342.88
2022-09-04T23:40:00.954Z,101342.25
2022-09-04T23:43:12.828Z,101337.84
2022-09-04T23:46:09.350Z,101340.97
2022-09-04T23:49:10.996Z,101332.66
2022-09-04T23:52:08.030Z,101331.56
2022-09-04T23:55:17.607Z,101335.25
2022-09-04T23:58:51.810Z,101334.13
